createdAt,value
2018-02-11T00:00:32.881Z,97972.74
2018-02-11T00:03:01.201Z,97969.95
2018-02-11T00:05:29.581Z,97975.38
2018-02-11T00:07:57.891Z,97971.48
2018-02-11T00:10:26.270Z,97974.00
2018-02-11T00:12:55.446Z,97973.13
2018-02-11T00:15:23.752Z,97968.54
2018-02-11T00:17:52.089Z,97977.45
2018-02-11T00:20:20.464Z,97978.31
2018-02-11T00:22:48.772Z,97971.17
2018-02-11T00:25:17.104Z,97969.84
2018-02-11T00:27:45.472Z,97973.25
2018-02-11T00:30:13.779Z,97967.17
2018-02-11T00:32:42.232Z,97966.73
2018-02-11T00:35:10.621Z,97965.20
2018-02-11T00:37:44.446Z,97963.36
2018-02-11T00:40:12.983Z,97963.70
2018-02-11T00:42:41.303Z,97959.91
2018-02-11T00:45:09.617Z,97960.38
2018-02-11T00:47:37.984Z,97961.83
2018-02-11T00:50:06.459Z,97956.14
2018-02-11T00:52:34.793Z,97951.94
2018-02-11T00:55:03.144Z,97940.95
2018-02-11T00:57:31.479Z,97944.33
2018-02-11T00:59:59.837Z,97937.81
2018-02-11T01:02:28.150Z,97938.08
2018-02-11T01:04:56.490Z,97929.33
2018-02-11T01:09:58.383Z,97926.08
2018-02-11T01:12:26.747Z,97923.69
2018-02-11T01:14:55.064Z,97920.39
2018-02-11T01:17:23.379Z,97910.96
2018-02-11T01:19:51.737Z,97905.47
2018-02-11T01:22:20.817Z,97905.39
2018-02-11T01:24:49.891Z,97896.17
2018-02-11T01:27:18.261Z,97896.72
2018-02-11T01:29:46.564Z,97891.02
2018-02-11T01:32:14.932Z,97875.59
2018-02-11T01:34:43.297Z,97864.95
2018-02-11T01:37:11.604Z,97863.38
2018-02-11T01:39:39.928Z,97859.97
2018-02-11T01:42:08.266Z,97855.92
2018-02-11T01:44:37.340Z,97854.13
2018-02-11T01:47:05.647Z,97839.64
2018-02-11T01:49:34.774Z,97836.06
2018-02-11T01:52:03.079Z,97830.55
2018-02-11T01:54:31.395Z,97838.16
2018-02-11T01:56:59.764Z,97837.89
2018-02-11T01:59:28.092Z,97835.55
2018-02-11T02:01:56.396Z,97828.99
2018-02-11T02:04:24.723Z,97828.02
2018-02-11T02:06:53.027Z,97828.16
2018-02-11T02:09:21.369Z,97827.92
2018-02-11T02:11:49.687Z,97822.48
2018-02-11T02:14:18.004Z,97822.68
2018-02-11T02:16:46.343Z,97814.59
2018-02-11T02:19:14.656Z,97815.17
2018-02-11T02:21:42.995Z,97809.88
2018-02-11T02:24:11.332Z,97805.80
2018-02-11T02:26:39.716Z,97810.88
2018-02-11T02:29:08.031Z,97804.05
2018-02-11T02:31:36.348Z,97800.31
2018-02-11T02:34:04.687Z,97792.47
2018-02-11T02:36:33.028Z,97786.70
2018-02-11T02:39:01.384Z,97780.09
2018-02-11T02:41:29.713Z,97782.81
2018-02-11T02:43:58.019Z,97777.31
2018-02-11T02:46:26.392Z,97770.96
2018-02-11T02:48:54.712Z,97761.46
2018-02-11T02:51:23.026Z,97757.61
2018-02-11T02:53:51.387Z,97761.35
2018-02-11T02:56:19.696Z,97762.69
2018-02-11T02:58:48.012Z,97754.78
2018-02-11T03:01:16.456Z,97752.94
2018-02-11T03:03:44.827Z,97745.93
2018-02-11T03:06:13.141Z,97751.48
2018-02-11T03:08:41.499Z,97744.58
2018-02-11T03:11:09.816Z,97741.19
2018-02-11T03:13:38.314Z,97737.89
2018-02-11T03:16:06.671Z,97731.52
2018-02-11T03:18:35.920Z,97724.39
2018-02-11T03:21:04.895Z,97720.33
2018-02-11T03:23:33.246Z,97719.95
2018-02-11T03:26:01.568Z,97719.47
2018-02-11T03:28:29.884Z,97712.39
2018-02-11T03:30:58.997Z,97712.81
2018-02-11T03:33:28.072Z,97709.79
2018-02-11T03:35:57.157Z,97704.47
2018-02-11T03:38:26.067Z,97705.47
2018-02-11T03:40:55.136Z,97693.01
2018-02-11T03:43:23.448Z,97688.55
2018-02-11T03:45:51.787Z,97684.67
2018-02-11T03:48:20.104Z,97677.73
2018-02-11T03:50:48.439Z,97671.64
2018-02-11T03:53:16.756Z,97669.96
2018-02-11T03:55:45.084Z,97660.52
2018-02-11T03:58:13.399Z,97654.64
2018-02-11T04:00:41.736Z,97651.35
2018-02-11T04:03:10.048Z,97651.23
2018-02-11T04:05:39.155Z,97655.42
2018-02-11T04:08:08.230Z,97644.44
2018-02-11T04:10:36.572Z,97641.95
2018-02-11T04:13:04.885Z,97633.55
2018-02-11T04:15:33.196Z,97630.06
2018-02-11T04:18:01.552Z,97622.83
2018-02-11T04:20:30.629Z,97620.33
2018-02-11T04:22:58.935Z,97615.76
2018-02-11T04:25:27.291Z,97617.72
2018-02-11T04:27:55.605Z,97613.64
2018-02-11T04:30:23.948Z,97604.86
2018-02-11T04:32:52.296Z,97592.88
2018-02-11T04:35:20.599Z,97588.07
2018-02-11T04:37:48.921Z,97586.58
2018-02-11T04:40:17.279Z,97585.09
2018-02-11T04:42:45.942Z,97587.86
2018-02-11T04:45:15.043Z,97578.58
2018-02-11T04:47:44.255Z,97573.41
2018-02-11T04:50:12.575Z,97578.95
2018-02-11T04:52:40.891Z,97573.95
2018-02-11T04:55:09.544Z,97573.77
2018-02-11T04:57:37.617Z,97563.23
2018-02-11T05:00:05.936Z,97556.13
2018-02-11T05:02:34.284Z,97553.82
2018-02-11T05:05:02.592Z,97550.24
2018-02-11T05:07:30.899Z,97549.38
2018-02-11T05:09:59.255Z,97542.63
2018-02-11T05:12:28.316Z,97534.02
2018-02-11T05:14:56.621Z,97533.28
2018-02-11T05:17:25.719Z,97524.67
2018-02-11T05:19:54.800Z,97525.66
2018-02-11T05:22:23.116Z,97525.31
2018-02-11T05:24:51.672Z,97520.09
2018-02-11T05:27:20.004Z,97520.65
2018-02-11T05:29:48.311Z,97514.02
2018-02-11T05:32:16.840Z,97515.94
2018-02-11T05:34:45.155Z,97515.45
2018-02-11T05:37:13.476Z,97509.94
2018-02-11T05:39:41.891Z,97514.56
2018-02-11T05:42:10.193Z,97511.78
2018-02-11T05:44:38.495Z,97498.11
2018-02-11T05:47:06.852Z,97500.20
2018-02-11T05:49:35.163Z,97497.14
2018-02-11T05:52:03.491Z,97504.05
2018-02-11T05:54:31.840Z,97501.94
2018-02-11T05:57:00.183Z,97496.92
2018-02-11T05:59:28.547Z,97483.06
2018-02-11T06:01:56.856Z,97482.92
2018-02-11T06:04:25.173Z,97482.98
2018-02-11T06:06:53.602Z,97478.22
2018-02-11T06:09:21.916Z,97473.85
2018-02-11T06:11:50.245Z,97469.97
2018-02-11T06:14:18.616Z,97463.13
2018-02-11T06:16:46.927Z,97468.50
2018-02-11T06:19:15.239Z,97463.75
2018-02-11T06:21:43.595Z,97462.73
2018-02-11T06:24:11.898Z,97465.77
2018-02-11T06:26:44.060Z,97466.12
2018-02-11T06:29:12.376Z,97464.97
2018-02-11T06:31:40.679Z,97460.69
2018-02-11T06:34:09.068Z,97457.05
2018-02-11T06:36:37.380Z,97458.09
2018-02-11T06:39:05.683Z,97460.03
2018-02-11T06:41:34.054Z,97461.56
2018-02-11T06:44:02.372Z,97458.37
2018-02-11T06:46:30.676Z,97460.58
2018-02-11T06:48:59.011Z,97453.95
2018-02-11T06:51:27.330Z,97452.69
2018-02-11T06:53:55.687Z,97452.30
2018-02-11T06:56:24.022Z,97449.70
2018-02-11T06:58:52.330Z,97436.45
2018-02-11T07:01:20.760Z,97434.58
2018-02-11T07:03:49.072Z,97429.42
2018-02-11T07:06:17.380Z,97426.95
2018-02-11T07:08:45.732Z,97435.91
2018-02-11T07:11:14.029Z,97443.88
2018-02-11T07:13:43.100Z,97434.07
2018-02-11T07:16:11.448Z,97438.40
2018-02-11T07:18:39.743Z,97416.78
2018-02-11T07:21:08.055Z,97414.23
2018-02-11T07:23:36.419Z,97409.05
2018-02-11T07:26:04.787Z,97403.70
2018-02-11T07:28:33.068Z,97397.03
2018-02-11T07:31:01.439Z,97398.12
2018-02-11T07:33:29.744Z,97395.23
2018-02-11T07:35:58.831Z,97391.16
2018-02-11T07:38:27.960Z,97382.66
2018-02-11T07:40:56.261Z,97379.38
2018-02-11T07:43:24.563Z,97380.31
2018-02-11T07:45:52.884Z,97375.52
2018-02-11T07:48:21.192Z,97366.27
2018-02-11T07:50:49.575Z,97359.87
2018-02-11T07:53:17.855Z,97354.94
2018-02-11T07:55:46.184Z,97363.27
2018-02-11T07:58:14.526Z,97352.32
2018-02-11T08:00:42.836Z,97344.14
2018-02-11T08:03:11.906Z,97346.63
2018-02-11T08:05:40.263Z,97350.33
2018-02-11T08:08:08.580Z,97351.23
2018-02-11T08:10:36.935Z,97346.55
2018-02-11T08:13:05.264Z,97343.79
2018-02-11T08:15:33.572Z,97342.67
2018-02-11T08:18:02.239Z,97344.81
2018-02-11T08:20:30.535Z,97340.37
2018-02-11T08:22:58.837Z,97334.37
2018-02-11T08:25:27.168Z,97337.74
2018-02-11T08:27:55.465Z,97332.96
2018-02-11T08:30:23.764Z,97327.49
2018-02-11T08:32:52.148Z,97322.64
2018-02-11T08:35:20.447Z,97320.93
2018-02-11T08:37:48.761Z,97320.17
2018-02-11T08:40:17.092Z,97305.68
2018-02-11T08:42:46.154Z,97305.03
2018-02-11T08:45:14.472Z,97290.98
2018-02-11T08:47:42.839Z,97293.31
2018-02-11T08:50:11.156Z,97290.80
2018-02-11T08:52:39.458Z,97287.56
2018-02-11T08:55:07.812Z,97282.81
2018-02-11T08:57:36.124Z,97283.62
2018-02-11T09:00:04.439Z,97275.67
2018-02-11T09:02:32.799Z,97276.89
2018-02-11T09:05:01.112Z,97275.47
2018-02-11T09:07:29.420Z,97273.12
2018-02-11T09:09:57.803Z,97274.86
2018-02-11T09:12:26.111Z,97275.20
2018-02-11T09:14:54.424Z,97273.80
2018-02-11T09:17:22.781Z,97270.28
2018-02-11T09:19:51.083Z,97274.94
2018-02-11T09:22:19.392Z,97267.17
2018-02-11T09:24:47.840Z,97270.48
2018-02-11T09:27:16.790Z,97266.39
2018-02-11T09:29:45.092Z,97268.09
2018-02-11T09:32:14.051Z,97268.23
2018-02-11T09:34:42.351Z,97269.72
2018-02-11T09:37:10.667Z,97264.90
2018-02-11T09:39:39.043Z,97262.86
2018-02-11T09:42:07.386Z,97265.67
2018-02-11T09:44:35.704Z,97261.62
2018-02-11T09:47:04.048Z,97264.95
2018-02-11T09:49:32.924Z,97255.12
2018-02-11T09:52:01.241Z,97260.64
2018-02-11T09:54:29.597Z,97259.60
2018-02-11T09:56:57.900Z,97259.55
2018-02-11T09:59:26.200Z,97258.80
2018-02-11T10:01:54.551Z,97256.83
2018-02-11T10:04:22.857Z,97268.59
2018-02-11T10:06:51.160Z,97262.28
2018-02-11T10:09:20.020Z,97258.83
2018-02-11T10:11:48.328Z,97263.05
2018-02-11T10:14:16.628Z,97256.30
2018-02-11T10:16:44.975Z,97255.09
2018-02-11T10:19:13.273Z,97240.88
2018-02-11T10:21:42.362Z,97241.33
2018-02-11T10:24:11.492Z,97244.92
2018-02-11T10:26:39.823Z,97241.39
2018-02-11T10:29:08.172Z,97243.44
2018-02-11T10:31:36.812Z,97244.74
2018-02-11T10:34:05.116Z,97248.06
2018-02-11T10:36:33.418Z,97238.37
2018-02-11T10:39:01.799Z,97238.31
2018-02-11T10:41:30.103Z,97236.89
2018-02-11T10:43:58.421Z,97239.92
2018-02-11T10:46:26.770Z,97237.08
2018-02-11T10:48:55.840Z,97229.83
2018-02-11T10:51:24.140Z,97235.51
2018-02-11T10:53:53.247Z,97235.60
2018-02-11T10:56:21.568Z,97231.08
2018-02-11T10:58:50.370Z,97222.83
2018-02-11T11:01:18.784Z,97219.42
2018-02-11T11:03:47.095Z,97217.34
2018-02-11T11:06:15.396Z,97209.13
2018-02-11T11:08:43.761Z,97203.28
2018-02-11T11:11:12.076Z,97200.86
2018-02-11T11:13:40.431Z,97207.26
2018-02-11T11:16:08.789Z,97201.42
2018-02-11T11:18:37.096Z,97202.33
2018-02-11T11:21:05.394Z,97203.44
2018-02-11T11:23:33.764Z,97194.11
2018-02-11T11:26:02.132Z,97195.72
2018-02-11T11:28:30.432Z,97190.16
2018-02-11T11:30:58.792Z,97191.38
2018-02-11T11:33:27.100Z,97189.86
2018-02-11T11:35:55.403Z,97188.80
2018-02-11T11:38:23.787Z,97191.38
2018-02-11T11:40:52.096Z,97184.14
2018-02-11T11:43:20.770Z,97194.30
2018-02-11T11:45:49.139Z,97199.38
2018-02-11T11:48:17.448Z,97186.63
2018-02-11T11:50:45.748Z,97183.20
2018-02-11T11:53:14.159Z,97191.55
2018-02-11T11:55:42.459Z,97186.81
2018-02-11T11:58:10.763Z,97172.89
2018-02-11T12:00:39.129Z,97181.16
2018-02-11T12:03:07.448Z,97183.91
2018-02-11T12:05:35.743Z,97182.82
2018-02-11T12:08:04.380Z,97171.45
2018-02-11T12:10:32.684Z,97176.34
2018-02-11T12:13:01.123Z,97173.31
2018-02-11T12:15:29.463Z,97168.45
2018-02-11T12:17:57.763Z,97171.24
2018-02-11T12:20:26.066Z,97157.00
2018-02-11T12:22:54.427Z,97161.13
2018-02-11T12:25:22.768Z,97167.02
2018-02-11T12:27:51.064Z,97162.42
2018-02-11T12:30:19.407Z,97160.88
2018-02-11T12:32:47.716Z,97161.62
2018-02-11T12:35:16.020Z,97167.59
2018-02-11T12:37:44.361Z,97156.23
2018-02-11T12:40:12.667Z,97158.87
2018-02-11T12:42:40.963Z,97156.67
2018-02-11T12:45:09.615Z,97160.55
2018-02-11T12:47:37.928Z,97154.46
2018-02-11T12:50:06.267Z,97156.36
2018-02-11T12:52:34.629Z,97157.78
2018-02-11T12:55:02.940Z,97159.14
2018-02-11T12:57:31.258Z,97157.41
2018-02-11T12:59:59.611Z,97156.41
2018-02-11T13:02:27.907Z,97154.80
2018-02-11T13:04:56.224Z,97155.73
2018-02-11T13:07:24.575Z,97159.89
2018-02-11T13:09:52.880Z,97156.84
2018-02-11T13:12:21.218Z,97157.27
2018-02-11T13:14:49.563Z,97151.53
2018-02-11T13:17:17.867Z,97153.39
2018-02-11T13:19:46.159Z,97158.20
2018-02-11T13:22:14.527Z,97153.44
2018-02-11T13:24:43.592Z,97154.70
2018-02-11T13:27:11.887Z,97151.45
2018-02-11T13:29:40.447Z,97149.31
2018-02-11T13:32:09.235Z,97147.05
2018-02-11T13:34:37.536Z,97152.19
2018-02-11T13:37:06.200Z,97148.90
2018-02-11T13:39:34.511Z,97149.02
2018-02-11T13:42:03.623Z,97145.45
2018-02-11T13:44:31.962Z,97144.77
2018-02-11T13:47:00.268Z,97138.88
2018-02-11T13:49:28.587Z,97132.60
2018-02-11T13:51:57.032Z,97147.04
2018-02-11T13:54:25.336Z,97144.84
2018-02-11T13:56:53.637Z,97145.68
2018-02-11T13:59:22.076Z,97145.25
2018-02-11T14:01:50.371Z,97148.45
2018-02-11T14:04:18.693Z,97153.13
2018-02-11T14:06:47.488Z,97142.94
2018-02-11T14:09:16.670Z,97143.60
2018-02-11T14:11:44.967Z,97139.23
2018-02-11T14:14:13.712Z,97134.28
2018-02-11T14:16:42.029Z,97135.04
2018-02-11T14:19:10.358Z,97139.17
2018-02-11T14:21:38.727Z,97131.02
2018-02-11T14:24:07.035Z,97137.30
2018-02-11T14:26:35.350Z,97145.39
2018-02-11T14:29:03.699Z,97148.91
2018-02-11T14:31:31.995Z,97142.47
2018-02-11T14:34:00.300Z,97149.34
2018-02-11T14:36:28.643Z,97148.42
2018-02-11T14:38:56.944Z,97148.78
2018-02-11T14:41:25.252Z,97150.92
2018-02-11T14:43:53.625Z,97148.52
2018-02-11T14:46:21.924Z,97149.17
2018-02-11T14:48:50.227Z,97152.23
2018-02-11T14:51:18.587Z,97151.43
2018-02-11T14:53:47.605Z,97146.91
2018-02-11T14:56:15.908Z,97148.78
2018-02-11T14:58:44.257Z,97139.14
2018-02-11T15:01:12.551Z,97145.16
2018-02-11T15:03:41.615Z,97136.86
2018-02-11T15:06:09.952Z,97130.04
2018-02-11T15:08:38.256Z,97133.61
2018-02-11T15:11:06.557Z,97124.77
2018-02-11T15:13:34.917Z,97126.38
2018-02-11T15:16:03.612Z,97120.56
2018-02-11T15:18:31.915Z,97114.87
2018-02-11T15:21:01.040Z,97127.87
2018-02-11T15:23:29.343Z,97127.77
2018-02-11T15:25:57.647Z,97120.69
2018-02-11T15:28:26.021Z,97130.20
2018-02-11T15:30:54.320Z,97127.42
2018-02-11T15:33:23.388Z,97122.67
2018-02-11T15:35:51.739Z,97127.81
2018-02-11T15:38:20.039Z,97132.92
2018-02-11T15:40:48.344Z,97138.11
2018-02-11T15:43:16.705Z,97137.81
2018-02-11T15:45:45.005Z,97136.25
2018-02-11T15:48:14.077Z,97132.12
2018-02-11T15:50:42.416Z,97141.44
2018-02-11T15:53:10.730Z,97142.36
2018-02-11T15:55:39.027Z,97142.09
2018-02-11T15:58:07.408Z,97138.50
2018-02-11T16:00:35.487Z,97145.23
2018-02-11T16:03:03.799Z,97143.78
2018-02-11T16:05:32.170Z,97145.18
2018-02-11T16:08:00.479Z,97149.72
2018-02-11T16:10:28.916Z,97138.56
2018-02-11T16:12:57.690Z,97146.05
2018-02-11T16:15:26.035Z,97144.70
2018-02-11T16:17:54.340Z,97152.06
2018-02-11T16:20:22.779Z,97162.41
2018-02-11T16:22:51.079Z,97156.83
2018-02-11T16:25:19.380Z,97150.46
2018-02-11T16:27:47.711Z,97156.00
2018-02-11T16:30:16.023Z,97156.55
2018-02-11T16:32:44.335Z,97165.49
2018-02-11T16:35:12.700Z,97169.39
2018-02-11T16:37:41.064Z,97176.59
2018-02-11T16:40:10.127Z,97173.70
2018-02-11T16:42:38.479Z,97175.45
2018-02-11T16:45:06.788Z,97183.40
2018-02-11T16:47:35.091Z,97186.27
2018-02-11T16:50:03.451Z,97192.38
2018-02-11T16:52:31.767Z,97195.48
2018-02-11T16:55:00.069Z,97199.01
2018-02-11T16:57:28.445Z,97202.54
2018-02-11T16:59:56.743Z,97202.84
2018-02-11T17:02:25.062Z,97206.00
2018-02-11T17:04:54.652Z,97206.90
2018-02-11T17:07:22.955Z,97208.86
2018-02-11T17:09:51.263Z,97212.41
2018-02-11T17:12:19.656Z,97205.61
2018-02-11T17:14:48.004Z,97215.86
2018-02-11T17:17:16.282Z,97210.42
2018-02-11T17:19:44.624Z,97211.34
2018-02-11T17:22:13.699Z,97212.36
2018-02-11T17:24:42.004Z,97220.69
2018-02-11T17:27:11.120Z,97212.05
2018-02-11T17:29:40.184Z,97214.45
2018-02-11T17:32:09.267Z,97216.09
2018-02-11T17:34:37.615Z,97224.78
2018-02-11T17:37:05.932Z,97225.70
2018-02-11T17:39:34.278Z,97222.10
2018-02-11T17:42:02.707Z,97225.51
2018-02-11T17:44:31.060Z,97227.30
2018-02-11T17:46:59.372Z,97241.59
2018-02-11T17:49:27.715Z,97234.28
2018-02-11T17:51:56.012Z,97241.59
2018-02-11T17:54:24.314Z,97234.27
2018-02-11T17:56:52.675Z,97235.53
2018-02-11T17:59:21.747Z,97241.60
2018-02-11T18:01:50.066Z,97242.09
2018-02-11T18:04:19.176Z,97247.41
2018-02-11T18:06:47.476Z,97248.28
2018-02-11T18:09:15.791Z,97248.53
2018-02-11T18:11:44.156Z,97251.09
2018-02-11T18:14:12.456Z,97257.26
2018-02-11T18:16:40.776Z,97250.23
2018-02-11T18:19:09.148Z,97258.13
2018-02-11T18:21:37.443Z,97256.03
2018-02-11T18:24:05.743Z,97257.82
2018-02-11T18:26:34.855Z,97253.50
2018-02-11T18:29:03.925Z,97254.23
2018-02-11T18:31:32.572Z,97259.31
2018-02-11T18:34:01.236Z,97272.13
2018-02-11T18:36:29.557Z,97282.38
2018-02-11T18:38:57.856Z,97282.70
2018-02-11T18:41:26.171Z,97287.20
2018-02-11T18:43:54.956Z,97289.26
2018-02-11T18:46:23.329Z,97291.98
2018-02-11T18:48:51.662Z,97301.59
2018-02-11T18:51:19.971Z,97297.12
2018-02-11T18:53:48.267Z,97299.33
2018-02-11T18:56:16.623Z,97300.09
2018-02-11T18:58:44.951Z,97298.92
2018-02-11T19:01:13.251Z,97306.20
2018-02-11T19:03:41.601Z,97297.12
2018-02-11T19:06:09.915Z,97303.19
2018-02-11T19:08:38.215Z,97308.81
2018-02-11T19:11:07.314Z,97309.36
2018-02-11T19:13:35.621Z,97314.17
2018-02-11T19:16:03.927Z,97310.98
2018-02-11T19:18:32.324Z,97314.89
2018-02-11T19:21:00.623Z,97323.87
2018-02-11T19:23:28.960Z,97328.09
2018-02-11T19:25:57.309Z,97327.17
2018-02-11T19:28:25.789Z,97335.20
2018-02-11T19:30:54.094Z,97336.78
2018-02-11T19:33:22.439Z,97338.18
2018-02-11T19:35:50.747Z,97335.81
2018-02-11T19:38:19.121Z,97340.39
2018-02-11T19:40:47.459Z,97339.59
2018-02-11T19:43:15.757Z,97343.61
2018-02-11T19:45:44.073Z,97348.88
2018-02-11T19:48:13.426Z,97344.47
2018-02-11T19:50:41.737Z,97343.28
2018-02-11T19:53:10.035Z,97345.11
2018-02-11T19:55:38.672Z,97349.73
2018-02-11T19:58:06.995Z,97358.38
2018-02-11T20:00:36.115Z,97363.52
2018-02-11T20:03:05.206Z,97365.47
2018-02-11T20:05:34.267Z,97364.35
2018-02-11T20:08:02.635Z,97366.49
2018-02-11T20:10:30.940Z,97377.74
2018-02-11T20:12:59.257Z,97378.90
2018-02-11T20:15:27.595Z,97364.37
2018-02-11T20:17:55.893Z,97367.81
2018-02-11T20:20:24.204Z,97368.06
2018-02-11T20:22:52.560Z,97377.19
2018-02-11T20:25:20.921Z,97378.11
2018-02-11T20:27:49.239Z,97383.78
2018-02-11T20:30:17.581Z,97378.29
2018-02-11T20:32:45.891Z,97382.75
2018-02-11T20:35:14.196Z,97382.67
2018-02-11T20:37:42.550Z,97384.16
2018-02-11T20:40:10.844Z,97387.84
2018-02-11T20:42:39.149Z,97393.84
2018-02-11T20:45:07.512Z,97393.28
2018-02-11T20:47:35.811Z,97393.85
2018-02-11T20:50:04.880Z,97397.52
2018-02-11T20:52:33.228Z,97394.83
2018-02-11T20:55:01.535Z,97389.81
2018-02-11T20:57:29.842Z,97397.06
2018-02-11T20:59:58.206Z,97390.98
2018-02-11T21:02:26.503Z,97385.56
2018-02-11T21:04:54.804Z,97396.00
2018-02-11T21:07:23.151Z,97403.33
2018-02-11T21:09:51.443Z,97398.30
2018-02-11T21:12:19.756Z,97388.55
2018-02-11T21:14:48.191Z,97399.17
2018-02-11T21:17:16.499Z,97411.55
2018-02-11T21:19:44.558Z,97415.47
2018-02-11T21:22:12.903Z,97427.95
2018-02-11T21:24:41.212Z,97435.88
2018-02-11T21:27:09.523Z,97444.06
2018-02-11T21:29:37.899Z,97448.06
2018-02-11T21:32:06.216Z,97457.98
2018-02-11T21:34:34.525Z,97465.30
2018-02-11T21:37:04.356Z,97460.36
2018-02-11T21:39:32.665Z,97468.30
2018-02-11T21:42:00.970Z,97478.87
2018-02-11T21:44:30.075Z,97481.30
2018-02-11T21:46:58.379Z,97473.59
2018-02-11T21:49:26.684Z,97473.59
2018-02-11T21:51:55.119Z,97473.20
2018-02-11T21:54:23.420Z,97481.61
2018-02-11T21:56:51.715Z,97481.75
2018-02-11T21:59:20.052Z,97480.52
2018-02-11T22:01:48.359Z,97474.62
2018-02-11T22:04:16.652Z,97476.62
2018-02-11T22:06:45.086Z,97471.05
2018-02-11T22:09:13.391Z,97470.94
2018-02-11T22:11:41.711Z,97461.88
2018-02-11T22:14:10.075Z,97454.09
2018-02-11T22:16:38.390Z,97438.91
2018-02-11T22:19:06.932Z,97424.02
2018-02-11T22:21:35.291Z,97420.94
2018-02-11T22:24:03.628Z,97420.13
2018-02-11T22:26:31.936Z,97424.01
2018-02-11T22:29:00.765Z,97431.81
2018-02-11T22:31:28.915Z,97432.94
2018-02-11T22:33:57.220Z,97440.30
2018-02-11T22:36:25.576Z,97437.64
2018-02-11T22:38:53.883Z,97447.25
2018-02-11T22:41:22.205Z,97457.66
2018-02-11T22:43:50.543Z,97464.55
2018-02-11T22:46:18.851Z,97464.33
2018-02-11T22:48:47.216Z,97458.77
2018-02-11T22:51:15.599Z,97459.79
2018-02-11T22:53:43.907Z,97440.64
2018-02-11T22:56:12.219Z,97450.70
2018-02-11T22:58:40.555Z,97451.20
2018-02-11T23:01:08.864Z,97452.53
2018-02-11T23:03:37.170Z,97452.41
2018-02-11T23:06:06.291Z,97447.47
2018-02-11T23:08:34.611Z,97448.91
2018-02-11T23:11:02.995Z,97445.06
2018-02-11T23:13:32.451Z,97447.39
2018-02-11T23:16:00.763Z,97456.30
2018-02-11T23:18:29.074Z,97448.17
2018-02-11T23:20:57.436Z,97457.47
2018-02-11T23:23:25.762Z,97452.02
2018-02-11T23:25:54.080Z,97450.69
2018-02-11T23:28:23.146Z,97450.02
2018-02-11T23:30:51.451Z,97448.95
2018-02-11T23:33:19.769Z,97454.53
2018-02-11T23:35:48.161Z,97458.97
2018-02-11T23:38:16.479Z,97457.41
2018-02-11T23:40:44.790Z,97458.73
2018-02-11T23:43:13.901Z,97465.64
2018-02-11T23:45:42.976Z,97474.19
2018-02-11T23:48:12.103Z,97470.19
2018-02-11T23:50:40.412Z,97477.62
2018-02-11T23:53:08.726Z,97480.36
2018-02-11T23:55:37.123Z,97479.89
2018-02-11T23:58:05.440Z,97484.53
